sensor_id;sensor_type;location;lat;lon;timestamp;temperature;humidity
78461;SHT31;67755;51.986;5.696;2023-06-01T00:00:42;18.5;50.6
78461;SHT31;67755;51.986;5.696;2023-06-01T00:03:11;18.4;50.5
78461;SHT31;67755;51.986;5.696;2023-06-01T00:05:42;18.4;50.8
78461;SHT31;67755;51.986;5.696;2023-06-01T00:08:12;18.4;50.3
78461;SHT31;67755;51.986;5.696;2023-06-01T00:10:42;18.3;51.2
78461;SHT31;67755;51.986;5.696;2023-06-01T00:13:12;18.3;51.0
78461;SHT31;67755;51.986;5.696;2023-06-01T00:15:41;18.3;50.2
78461;SHT31;67755;51.986;5.696;2023-06-01T00:18:13;18.2;50.2
78461;SHT31;67755;51.986;5.696;2023-06-01T00:20:43;18.2;50.6
78461;SHT31;67755;51.986;5.696;2023-06-01T00:23:12;18.1;50.9
78461;SHT31;67755;51.986;5.696;2023-06-01T00:25:44;18.1;51.4
78461;SHT31;67755;51.986;5.696;2023-06-01T00:28:15;18.1;50.9
78461;SHT31;67755;51.986;5.696;2023-06-01T00:30:44;18.0;50.8
78461;SHT31;67755;51.986;5.696;2023-06-01T00:33:14;18.0;50.7
78461;SHT31;67755;51.986;5.696;2023-06-01T00:35:44;18.0;50.7
78461;SHT31;67755;51.986;5.696;2023-06-01T00:38:13;17.9;50.9
78461;SHT31;67755;51.986;5.696;2023-06-01T00:40:43;17.9;51.0
78461;SHT31;67755;51.986;5.696;2023-06-01T00:43:12;17.8;50.8
78461;SHT31;67755;51.986;5.696;2023-06-01T00:45:42;17.8;51.5
78461;SHT31;67755;51.986;5.696;2023-06-01T00:48:15;17.8;51.3
78461;SHT31;67755;51.986;5.696;2023-06-01T00:50:45;17.8;50.9
78461;SHT31;67755;51.986;5.696;2023-06-01T00:53:18;17.8;51.0
78461;SHT31;67755;51.986;5.696;2023-06-01T00:55:48;17.8;51.5
78461;SHT31;67755;51.986;5.696;2023-06-01T00:58:18;17.7;51.1
78461;SHT31;67755;51.986;5.696;2023-06-01T01:00:48;17.7;52.0
78461;SHT31;67755;51.986;5.696;2023-06-01T01:03:21;17.7;51.6
78461;SHT31;67755;51.986;5.696;2023-06-01T01:06:03;17.7;51.9
78461;SHT31;67755;51.986;5.696;2023-06-01T01:08:50;17.6;51.7
78461;SHT31;67755;51.986;5.696;2023-06-01T01:11:27;17.6;51.7
78461;SHT31;67755;51.986;5.696;2023-06-01T01:14:05;17.6;52.1
78461;SHT31;67755;51.986;5.696;2023-06-01T01:16:42;17.6;52.2
78461;SHT31;67755;51.986;5.696;2023-06-01T01:19:35;17.6;52.0
78461;SHT31;67755;51.986;5.696;2023-06-01T01:22:17;17.6;52.5
78461;SHT31;67755;51.986;5.696;2023-06-01T01:25:01;17.6;52.0
78461;SHT31;67755;51.986;5.696;2023-06-01T01:27:39;17.6;51.9
78461;SHT31;67755;51.986;5.696;2023-06-01T01:30:16;17.6;51.9
78461;SHT31;67755;51.986;5.696;2023-06-01T01:32:50;17.6;51.9
78461;SHT31;67755;51.986;5.696;2023-06-01T01:35:23;17.6;51.9
78461;SHT31;67755;51.986;5.696;2023-06-01T01:37:54;17.6;52.0
78461;SHT31;67755;51.986;5.696;2023-06-01T01:40:24;17.6;51.5
78461;SHT31;67755;51.986;5.696;2023-06-01T01:42:54;17.6;51.4
78461;SHT31;67755;51.986;5.696;2023-06-01T01:45:25;17.6;51.9
78461;SHT31;67755;51.986;5.696;2023-06-01T01:48:00;17.6;51.8
78461;SHT31;67755;51.986;5.696;2023-06-01T01:50:41;17.6;51.7
78461;SHT31;67755;51.986;5.696;2023-06-01T01:53:15;17.6;51.3
78461;SHT31;67755;51.986;5.696;2023-06-01T01:55:47;17.5;51.5
78461;SHT31;67755;51.986;5.696;2023-06-01T01:58:18;17.5;51.7
78461;SHT31;67755;51.986;5.696;2023-06-01T02:00:49;17.5;51.9
78461;SHT31;67755;51.986;5.696;2023-06-01T02:03:19;17.5;52.5
78461;SHT31;67755;51.986;5.696;2023-06-01T02:05:49;17.5;51.8
78461;SHT31;67755;51.986;5.696;2023-06-01T02:08:19;17.5;51.5
78461;SHT31;67755;51.986;5.696;2023-06-01T02:10:49;17.5;51.6
78461;SHT31;67755;51.986;5.696;2023-06-01T02:13:18;17.5;51.8
78461;SHT31;67755;51.986;5.696;2023-06-01T02:15:48;17.5;52.0
78461;SHT31;67755;51.986;5.696;2023-06-01T02:18:17;17.5;52.0
78461;SHT31;67755;51.986;5.696;2023-06-01T02:20:47;17.5;51.8
78461;SHT31;67755;51.986;5.696;2023-06-01T02:23:17;17.4;51.5
78461;SHT31;67755;51.986;5.696;2023-06-01T02:25:47;17.4;52.1
78461;SHT31;67755;51.986;5.696;2023-06-01T02:28:18;17.4;52.3
78461;SHT31;67755;51.986;5.696;2023-06-01T02:30:48;17.4;52.4
78461;SHT31;67755;51.986;5.696;2023-06-01T02:33:17;17.3;52.4
78461;SHT31;67755;51.986;5.696;2023-06-01T02:35:47;17.3;52.1
78461;SHT31;67755;51.986;5.696;2023-06-01T02:38:16;17.3;52.7
78461;SHT31;67755;51.986;5.696;2023-06-01T02:40:46;17.3;52.5
78461;SHT31;67755;51.986;5.696;2023-06-01T02:43:17;17.3;52.0
78461;SHT31;67755;51.986;5.696;2023-06-01T02:45:47;17.3;52.3
78461;SHT31;67755;51.986;5.696;2023-06-01T02:48:17;17.3;52.6
78461;SHT31;67755;51.986;5.696;2023-06-01T02:50:47;17.3;52.2
78461;SHT31;67755;51.986;5.696;2023-06-01T02:53:17;17.2;52.7
78461;SHT31;67755;51.986;5.696;2023-06-01T02:55:47;17.2;52.4
78461;SHT31;67755;51.986;5.696;2023-06-01T02:58:16;17.2;52.4
78461;SHT31;67755;51.986;5.696;2023-06-01T03:00:46;17.2;52.4
78461;SHT31;67755;51.986;5.696;2023-06-01T03:03:17;17.2;52.1
78461;SHT31;67755;51.986;5.696;2023-06-01T03:05:47;17.2;52.2
78461;SHT31;67755;51.986;5.696;2023-06-01T03:08:17;17.2;52.6
78461;SHT31;67755;51.986;5.696;2023-06-01T03:10:47;17.2;52.1
78461;SHT31;67755;51.986;5.696;2023-06-01T03:13:17;17.2;52.2
78461;SHT31;67755;51.986;5.696;2023-06-01T03:15:46;17.2;52.4
78461;SHT31;67755;51.986;5.696;2023-06-01T03:18:16;17.2;52.3
78461;SHT31;67755;51.986;5.696;2023-06-01T03:20:46;17.2;52.0
78461;SHT31;67755;51.986;5.696;2023-06-01T03:23:16;17.2;52.4
78461;SHT31;67755;51.986;5.696;2023-06-01T03:25:45;17.2;52.1
78461;SHT31;67755;51.986;5.696;2023-06-01T03:28:15;17.2;52.3
78461;SHT31;67755;51.986;5.696;2023-06-01T03:30:46;17.2;52.6
78461;SHT31;67755;51.986;5.696;2023-06-01T03:33:15;17.2;52.6
78461;SHT31;67755;51.986;5.696;2023-06-01T03:35:45;17.2;51.8
78461;SHT31;67755;51.986;5.696;2023-06-01T03:38:17;17.2;52.3
78461;SHT31;67755;51.986;5.696;2023-06-01T03:40:46;17.2;52.7
78461;SHT31;67755;51.986;5.696;2023-06-01T03:43:15;17.2;52.6
78461;SHT31;67755;51.986;5.696;2023-06-01T03:45:45;17.2;51.8
78461;SHT31;67755;51.986;5.696;2023-06-01T03:48:14;17.2;52.2
78461;SHT31;67755;51.986;5.696;2023-06-01T03:50:45;17.2;51.4
78461;SHT31;67755;51.986;5.696;2023-06-01T03:53:14;17.2;51.5
78461;SHT31;67755;51.986;5.696;2023-06-01T03:55:44;17.2;51.9
78461;SHT31;67755;51.986;5.696;2023-06-01T03:58:15;17.2;51.8
78461;SHT31;67755;51.986;5.696;2023-06-01T04:00:46;17.2;51.8
78461;SHT31;67755;51.986;5.696;2023-06-01T04:03:18;17.2;52.2
78461;SHT31;67755;51.986;5.696;2023-06-01T04:05:49;17.2;51.6
78461;SHT31;67755;51.986;5.696;2023-06-01T04:08:24;17.2;51.6
78461;SHT31;67755;51.986;5.696;2023-06-01T04:10:54;17.1;51.2
78461;SHT31;67755;51.986;5.696;2023-06-01T04:13:23;17.1;51.9
78461;SHT31;67755;51.986;5.696;2023-06-01T04:15:53;17.1;51.3
78461;SHT31;67755;51.986;5.696;2023-06-01T04:18:22;17.1;51.8
78461;SHT31;67755;51.986;5.696;2023-06-01T04:20:52;17.1;51.5
78461;SHT31;67755;51.986;5.696;2023-06-01T04:23:22;17.1;51.7
78461;SHT31;67755;51.986;5.696;2023-06-01T04:25:52;17.1;52.0
78461;SHT31;67755;51.986;5.696;2023-06-01T04:28:26;17.1;51.7
78461;SHT31;67755;51.986;5.696;2023-06-01T04:30:57;17.1;52.2
78461;SHT31;67755;51.986;5.696;2023-06-01T04:33:28;17.1;52.1
78461;SHT31;67755;51.986;5.696;2023-06-01T04:35:57;17.1;51.5
78461;SHT31;67755;51.986;5.696;2023-06-01T04:38:28;17.1;51.6
78461;SHT31;67755;51.986;5.696;2023-06-01T04:40:59;17.1;52.1
78461;SHT31;67755;51.986;5.696;2023-06-01T04:43:28;17.1;51.3
78461;SHT31;67755;51.986;5.696;2023-06-01T04:45:58;17.1;51.7
78461;SHT31;67755;51.986;5.696;2023-06-01T04:48:31;17.1;52.1
78461;SHT31;67755;51.986;5.696;2023-06-01T04:51:00;17.1;51.7
78461;SHT31;67755;51.986;5.696;2023-06-01T04:53:34;17.1;51.9
78461;SHT31;67755;51.986;5.696;2023-06-01T04:56:03;17.0;52.0
78461;SHT31;67755;51.986;5.696;2023-06-01T04:58:33;17.0;52.8
78461;SHT31;67755;51.986;5.696;2023-06-01T05:01:03;17.1;52.3
78461;SHT31;67755;51.986;5.696;2023-06-01T05:03:33;17.1;52.2
78461;SHT31;67755;51.986;5.696;2023-06-01T05:06:03;17.1;51.9
78461;SHT31;67755;51.986;5.696;2023-06-01T05:08:32;17.1;51.8
78461;SHT31;67755;51.986;5.696;2023-06-01T05:11:03;17.1;51.8
78461;SHT31;67755;51.986;5.696;2023-06-01T05:13:33;17.1;51.8
78461;SHT31;67755;51.986;5.696;2023-06-01T05:16:03;17.1;51.2
78461;SHT31;67755;51.986;5.696;2023-06-01T05:18:33;17.2;52.9
78461;SHT31;67755;51.986;5.696;2023-06-01T05:21:03;17.2;52.5
78461;SHT31;67755;51.986;5.696;2023-06-01T05:23:33;17.2;52.6
78461;SHT31;67755;51.986;5.696;2023-06-01T05:26:02;17.2;52.1
78461;SHT31;67755;51.986;5.696;2023-06-01T05:28:33;17.2;52.2
78461;SHT31;67755;51.986;5.696;2023-06-01T05:31:03;17.2;51.6
78461;SHT31;67755;51.986;5.696;2023-06-01T05:33:33;17.2;51.6
78461;SHT31;67755;51.986;5.696;2023-06-01T05:36:04;17.2;51.6
78461;SHT31;67755;51.986;5.696;2023-06-01T05:38:34;17.2;52.0
78461;SHT31;67755;51.986;5.696;2023-06-01T05:41:06;17.3;53.0
78461;SHT31;67755;51.986;5.696;2023-06-01T05:43:36;17.3;52.1
78461;SHT31;67755;51.986;5.696;2023-06-01T05:46:06;17.3;52.1
78461;SHT31;67755;51.986;5.696;2023-06-01T05:48:35;17.3;51.7
78461;SHT31;67755;51.986;5.696;2023-06-01T05:51:05;17.4;51.2
78461;SHT31;67755;51.986;5.696;2023-06-01T05:53:35;17.4;51.2
78461;SHT31;67755;51.986;5.696;2023-06-01T05:56:07;17.4;51.4
78461;SHT31;67755;51.986;5.696;2023-06-01T05:58:37;17.4;51.2
78461;SHT31;67755;51.986;5.696;2023-06-01T06:01:06;17.5;51.1
78461;SHT31;67755;51.986;5.696;2023-06-01T06:03:36;17.5;51.5
78461;SHT31;67755;51.986;5.696;2023-06-01T06:06:07;17.5;50.9
78461;SHT31;67755;51.986;5.696;2023-06-01T06:08:37;17.5;51.4
78461;SHT31;67755;51.986;5.696;2023-06-01T06:11:06;17.5;50.6
78461;SHT31;67755;51.986;5.696;2023-06-01T06:13:36;17.5;51.2
78461;SHT31;67755;51.986;5.696;2023-06-01T06:16:06;17.5;50.2
78461;SHT31;67755;51.986;5.696;2023-06-01T06:18:35;17.5;50.4
78461;SHT31;67755;51.986;5.696;2023-06-01T06:21:05;17.5;50.2
78461;SHT31;67755;51.986;5.696;2023-06-01T06:23:37;17.5;50.6
78461;SHT31;67755;51.986;5.696;2023-06-01T06:26:07;17.6;51.0
78461;SHT31;67755;51.986;5.696;2023-06-01T06:28:36;17.6;50.8
78461;SHT31;67755;51.986;5.696;2023-06-01T06:31:06;17.6;50.9
78461;SHT31;67755;51.986;5.696;2023-06-01T06:33:36;17.6;50.7
78461;SHT31;67755;51.986;5.696;2023-06-01T06:36:06;17.6;51.7
78461;SHT31;67755;51.986;5.696;2023-06-01T06:38:35;17.6;50.7
78461;SHT31;67755;51.986;5.696;2023-06-01T06:41:05;17.6;50.5
78461;SHT31;67755;51.986;5.696;2023-06-01T06:43:34;17.6;52.0
78461;SHT31;67755;51.986;5.696;2023-06-01T06:46:04;17.6;50.0
78461;SHT31;67755;51.986;5.696;2023-06-01T06:48:34;17.6;50.2
78461;SHT31;67755;51.986;5.696;2023-06-01T06:51:04;17.6;50.1
78461;SHT31;67755;51.986;5.696;2023-06-01T06:53:33;17.6;50.1
78461;SHT31;67755;51.986;5.696;2023-06-01T06:56:05;17.7;50.2
78461;SHT31;67755;51.986;5.696;2023-06-01T06:58:34;17.7;51.1
78461;SHT31;67755;51.986;5.696;2023-06-01T07:01:04;17.7;50.5
78461;SHT31;67755;51.986;5.696;2023-06-01T07:03:34;17.7;52.3
78461;SHT31;67755;51.986;5.696;2023-06-01T07:06:06;17.8;50.5
78461;SHT31;67755;51.986;5.696;2023-06-01T07:08:35;17.8;51.1
78461;SHT31;67755;51.986;5.696;2023-06-01T07:11:08;17.9;50.1
78461;SHT31;67755;51.986;5.696;2023-06-01T07:13:37;17.9;49.8
78461;SHT31;67755;51.986;5.696;2023-06-01T07:16:07;18.0;49.0
78461;SHT31;67755;51.986;5.696;2023-06-01T07:18:36;18.0;49.5
78461;SHT31;67755;51.986;5.696;2023-06-01T07:21:07;18.0;49.0
78461;SHT31;67755;51.986;5.696;2023-06-01T07:23:36;18.0;49.8
78461;SHT31;67755;51.986;5.696;2023-06-01T07:26:06;18.0;50.5
78461;SHT31;67755;51.986;5.696;2023-06-01T07:28:35;18.0;51.3
78461;SHT31;67755;51.986;5.696;2023-06-01T07:31:05;18.1;51.1
78461;SHT31;67755;51.986;5.696;2023-06-01T07:33:34;18.2;51.4
78461;SHT31;67755;51.986;5.696;2023-06-01T07:36:06;18.2;51.3
78461;SHT31;67755;51.986;5.696;2023-06-01T07:38:37;18.3;50.2
78461;SHT31;67755;51.986;5.696;2023-06-01T07:41:09;18.4;49.7
78461;SHT31;67755;51.986;5.696;2023-06-01T07:43:41;18.5;49.6
78461;SHT31;67755;51.986;5.696;2023-06-01T07:46:10;18.5;49.2
78461;SHT31;67755;51.986;5.696;2023-06-01T07:48:40;18.6;49.6
78461;SHT31;67755;51.986;5.696;2023-06-01T07:51:11;18.7;49.7
78461;SHT31;67755;51.986;5.696;2023-06-01T07:53:41;18.7;47.9
78461;SHT31;67755;51.986;5.696;2023-06-01T07:56:11;18.8;49.2
78461;SHT31;67755;51.986;5.696;2023-06-01T07:58:42;18.8;50.0
78461;SHT31;67755;51.986;5.696;2023-06-01T08:01:13;18.9;46.9
78461;SHT31;67755;51.986;5.696;2023-06-01T08:03:45;19.0;48.2
78461;SHT31;67755;51.986;5.696;2023-06-01T08:06:16;19.1;48.3
78461;SHT31;67755;51.986;5.696;2023-06-01T08:08:46;19.2;46.9
78461;SHT31;67755;51.986;5.696;2023-06-01T08:11:16;19.3;46.9
78461;SHT31;67755;51.986;5.696;2023-06-01T08:13:46;19.3;47.5
78461;SHT31;67755;51.986;5.696;2023-06-01T08:16:15;19.4;45.8
78461;SHT31;67755;51.986;5.696;2023-06-01T08:18:45;19.5;46.7
78461;SHT31;67755;51.986;5.696;2023-06-01T08:21:16;19.6;47.0
78461;SHT31;67755;51.986;5.696;2023-06-01T08:23:47;19.6;47.0
78461;SHT31;67755;51.986;5.696;2023-06-01T08:26:19;19.8;46.4
78461;SHT31;67755;51.986;5.696;2023-06-01T08:28:49;19.9;46.3
78461;SHT31;67755;51.986;5.696;2023-06-01T08:31:22;20.0;46.4
78461;SHT31;67755;51.986;5.696;2023-06-01T08:33:53;20.1;46.4
78461;SHT31;67755;51.986;5.696;2023-06-01T08:36:23;20.2;46.2
78461;SHT31;67755;51.986;5.696;2023-06-01T08:38:55;20.4;44.9
78461;SHT31;67755;51.986;5.696;2023-06-01T08:41:36;20.5;44.8
78461;SHT31;67755;51.986;5.696;2023-06-01T08:44:08;20.6;45.0
78461;SHT31;67755;51.986;5.696;2023-06-01T08:46:43;20.7;43.4
78461;SHT31;67755;51.986;5.696;2023-06-01T08:49:15;20.8;44.5
78461;SHT31;67755;51.986;5.696;2023-06-01T08:51:47;20.9;43.3
78461;SHT31;67755;51.986;5.696;2023-06-01T08:54:18;21.0;43.8
78461;SHT31;67755;51.986;5.696;2023-06-01T08:56:48;21.1;44.5
78461;SHT31;67755;51.986;5.696;2023-06-01T08:59:18;21.2;43.4
78461;SHT31;67755;51.986;5.696;2023-06-01T09:01:48;21.3;42.0
78461;SHT31;67755;51.986;5.696;2023-06-01T09:04:18;21.4;43.0
78461;SHT31;67755;51.986;5.696;2023-06-01T09:06:48;21.5;43.3
78461;SHT31;67755;51.986;5.696;2023-06-01T09:09:17;21.5;43.2
78461;SHT31;67755;51.986;5.696;2023-06-01T09:11:47;21.6;43.8
78461;SHT31;67755;51.986;5.696;2023-06-01T09:14:21;21.7;43.7
78461;SHT31;67755;51.986;5.696;2023-06-01T09:16:51;21.9;42.9
78461;SHT31;67755;51.986;5.696;2023-06-01T09:19:21;22.0;43.1
78461;SHT31;67755;51.986;5.696;2023-06-01T09:21:59;22.1;42.9
78461;SHT31;67755;51.986;5.696;2023-06-01T09:24:29;22.2;41.8
78461;SHT31;67755;51.986;5.696;2023-06-01T09:27:02;22.3;41.9
78461;SHT31;67755;51.986;5.696;2023-06-01T09:29:31;22.5;41.7
78461;SHT31;67755;51.986;5.696;2023-06-01T09:32:01;22.5;40.3
78461;SHT31;67755;51.986;5.696;2023-06-01T09:34:30;22.6;41.9
78461;SHT31;67755;51.986;5.696;2023-06-01T09:37:07;22.7;39.7
78461;SHT31;67755;51.986;5.696;2023-06-01T09:39:37;22.8;39.5
78461;SHT31;67755;51.986;5.696;2023-06-01T09:42:07;22.9;39.6
78461;SHT31;67755;51.986;5.696;2023-06-01T09:44:39;23.0;40.7
78461;SHT31;67755;51.986;5.696;2023-06-01T09:47:10;23.0;39.6
78461;SHT31;67755;51.986;5.696;2023-06-01T09:49:41;23.1;39.6
78461;SHT31;67755;51.986;5.696;2023-06-01T09:52:13;23.1;39.5
78461;SHT31;67755;51.986;5.696;2023-06-01T09:54:46;23.2;40.7
78461;SHT31;67755;51.986;5.696;2023-06-01T09:57:23;23.3;40.8
78461;SHT31;67755;51.986;5.696;2023-06-01T09:59:53;23.4;39.8
78461;SHT31;67755;51.986;5.696;2023-06-01T10:02:24;23.5;39.9
78461;SHT31;67755;51.986;5.696;2023-06-01T10:04:55;23.6;38.9
78461;SHT31;67755;51.986;5.696;2023-06-01T10:07:27;23.7;39.4
78461;SHT31;67755;51.986;5.696;2023-06-01T10:09:59;23.8;39.4
78461;SHT31;67755;51.986;5.696;2023-06-01T10:12:31;23.8;39.4
78461;SHT31;67755;51.986;5.696;2023-06-01T10:15:02;23.9;39.6
78461;SHT31;67755;51.986;5.696;2023-06-01T10:17:32;24.0;39.7
78461;SHT31;67755;51.986;5.696;2023-06-01T10:20:06;24.1;39.1
78461;SHT31;67755;51.986;5.696;2023-06-01T10:22:39;24.3;38.6
78461;SHT31;67755;51.986;5.696;2023-06-01T10:25:14;24.4;39.4
78461;SHT31;67755;51.986;5.696;2023-06-01T10:27:54;24.5;36.7
78461;SHT31;67755;51.986;5.696;2023-06-01T10:30:25;24.5;36.3
78461;SHT31;67755;51.986;5.696;2023-06-01T10:32:54;24.6;38.3
78461;SHT31;67755;51.986;5.696;2023-06-01T10:38:43;24.7;38.2
78461;SHT31;67755;51.986;5.696;2023-06-01T10:41:29;24.7;37.2
78461;SHT31;67755;51.986;5.696;2023-06-01T10:43:59;24.8;37.4
78461;SHT31;67755;51.986;5.696;2023-06-01T10:46:36;24.9;37.2
78461;SHT31;67755;51.986;5.696;2023-06-01T10:49:08;24.9;37.2
78461;SHT31;67755;51.986;5.696;2023-06-01T10:51:38;25.0;36.2
78461;SHT31;67755;51.986;5.696;2023-06-01T10:54:29;25.0;36.6
78461;SHT31;67755;51.986;5.696;2023-06-01T10:57:21;25.1;36.2
78461;SHT31;67755;51.986;5.696;2023-06-01T11:00:10;25.2;35.6
78461;SHT31;67755;51.986;5.696;2023-06-01T11:02:48;25.2;34.8
78461;SHT31;67755;51.986;5.696;2023-06-01T11:05:41;25.2;36.7
78461;SHT31;67755;51.986;5.696;2023-06-01T11:09:14;25.3;36.5
78461;SHT31;67755;51.986;5.696;2023-06-01T11:12:00;25.3;36.3
78461;SHT31;67755;51.986;5.696;2023-06-01T11:14:31;25.4;34.4
78461;SHT31;67755;51.986;5.696;2023-06-01T11:17:28;25.4;35.3
78461;SHT31;67755;51.986;5.696;2023-06-01T11:20:02;25.5;35.4
78461;SHT31;67755;51.986;5.696;2023-06-01T11:22:38;25.5;34.8
78461;SHT31;67755;51.986;5.696;2023-06-01T11:25:11;25.6;36.1
78461;SHT31;67755;51.986;5.696;2023-06-01T11:27:46;25.7;34.8
78461;SHT31;67755;51.986;5.696;2023-06-01T11:30:20;25.7;34.0
78461;SHT31;67755;51.986;5.696;2023-06-01T11:32:52;25.7;36.4
78461;SHT31;67755;51.986;5.696;2023-06-01T11:35:24;25.7;35.9
78461;SHT31;67755;51.986;5.696;2023-06-01T11:37:58;25.7;37.4
78461;SHT31;67755;51.986;5.696;2023-06-01T11:40:31;25.8;36.0
78461;SHT31;67755;51.986;5.696;2023-06-01T11:43:03;25.8;35.9
78461;SHT31;67755;51.986;5.696;2023-06-01T11:45:32;25.8;36.2
78461;SHT31;67755;51.986;5.696;2023-06-01T11:48:11;25.9;35.7
78461;SHT31;67755;51.986;5.696;2023-06-01T11:50:46;25.9;36.0
78461;SHT31;67755;51.986;5.696;2023-06-01T11:53:15;25.9;35.7
78461;SHT31;67755;51.986;5.696;2023-06-01T11:55:55;25.9;36.0
78461;SHT31;67755;51.986;5.696;2023-06-01T11:58:26;26.0;35.7
78461;SHT31;67755;51.986;5.696;2023-06-01T12:00:57;26.0;35.9
78461;SHT31;67755;51.986;5.696;2023-06-01T12:03:27;26.0;34.6
78461;SHT31;67755;51.986;5.696;2023-06-01T12:05:59;26.0;36.1
78461;SHT31;67755;51.986;5.696;2023-06-01T12:08:30;26.0;35.3
78461;SHT31;67755;51.986;5.696;2023-06-01T12:10:59;26.1;36.9
78461;SHT31;67755;51.986;5.696;2023-06-01T12:13:30;26.1;36.1
78461;SHT31;67755;51.986;5.696;2023-06-01T12:16:00;26.2;36.0
78461;SHT31;67755;51.986;5.696;2023-06-01T12:18:34;26.2;35.8
78461;SHT31;67755;51.986;5.696;2023-06-01T12:21:11;26.2;34.1
78461;SHT31;67755;51.986;5.696;2023-06-01T12:23:43;26.2;34.1
78461;SHT31;67755;51.986;5.696;2023-06-01T12:26:18;26.2;36.0
78461;SHT31;67755;51.986;5.696;2023-06-01T12:28:49;26.2;35.6
78461;SHT31;67755;51.986;5.696;2023-06-01T12:31:22;26.3;35.5
78461;SHT31;67755;51.986;5.696;2023-06-01T12:33:52;26.3;36.3
78461;SHT31;67755;51.986;5.696;2023-06-01T12:36:33;26.3;35.3
78461;SHT31;67755;51.986;5.696;2023-06-01T12:39:04;26.3;36.1
78461;SHT31;67755;51.986;5.696;2023-06-01T12:41:35;26.3;36.0
78461;SHT31;67755;51.986;5.696;2023-06-01T12:44:05;26.4;36.6
78461;SHT31;67755;51.986;5.696;2023-06-01T12:46:34;26.4;35.3
78461;SHT31;67755;51.986;5.696;2023-06-01T12:49:14;26.4;35.0
78461;SHT31;67755;51.986;5.696;2023-06-01T12:51:46;26.4;35.6
78461;SHT31;67755;51.986;5.696;2023-06-01T12:54:16;26.4;35.4
78461;SHT31;67755;51.986;5.696;2023-06-01T12:56:48;26.4;36.5
78461;SHT31;67755;51.986;5.696;2023-06-01T12:59:18;26.4;36.6
78461;SHT31;67755;51.986;5.696;2023-06-01T13:01:48;26.4;36.2
78461;SHT31;67755;51.986;5.696;2023-06-01T13:04:18;26.4;36.6
78461;SHT31;67755;51.986;5.696;2023-06-01T13:06:48;26.4;36.6
78461;SHT31;67755;51.986;5.696;2023-06-01T13:09:18;26.4;37.0
78461;SHT31;67755;51.986;5.696;2023-06-01T13:11:47;26.4;36.2
78461;SHT31;67755;51.986;5.696;2023-06-01T13:14:17;26.4;37.2
78461;SHT31;67755;51.986;5.696;2023-06-01T13:16:47;26.4;37.5
78461;SHT31;67755;51.986;5.696;2023-06-01T13:19:17;26.4;37.7
78461;SHT31;67755;51.986;5.696;2023-06-01T13:21:48;26.3;36.6
78461;SHT31;67755;51.986;5.696;2023-06-01T13:24:17;26.3;37.6
78461;SHT31;67755;51.986;5.696;2023-06-01T13:26:47;26.3;38.3
78461;SHT31;67755;51.986;5.696;2023-06-01T13:29:17;26.3;37.6
78461;SHT31;67755;51.986;5.696;2023-06-01T13:31:46;26.3;37.4
78461;SHT31;67755;51.986;5.696;2023-06-01T13:34:16;26.3;36.7
78461;SHT31;67755;51.986;5.696;2023-06-01T13:36:48;26.2;37.2
78461;SHT31;67755;51.986;5.696;2023-06-01T13:39:19;26.2;38.0
78461;SHT31;67755;51.986;5.696;2023-06-01T13:41:48;26.2;37.6
78461;SHT31;67755;51.986;5.696;2023-06-01T13:44:18;26.1;36.5
78461;SHT31;67755;51.986;5.696;2023-06-01T13:46:48;26.1;37.3
78461;SHT31;67755;51.986;5.696;2023-06-01T13:49:17;26.0;37.2
78461;SHT31;67755;51.986;5.696;2023-06-01T13:51:47;26.0;37.2
78461;SHT31;67755;51.986;5.696;2023-06-01T13:54:17;25.9;36.5
78461;SHT31;67755;51.986;5.696;2023-06-01T13:56:46;25.8;36.9
78461;SHT31;67755;51.986;5.696;2023-06-01T13:59:16;25.7;36.6
78461;SHT31;67755;51.986;5.696;2023-06-01T14:01:45;25.6;36.9
78461;SHT31;67755;51.986;5.696;2023-06-01T14:04:15;25.5;37.6
78461;SHT31;67755;51.986;5.696;2023-06-01T14:06:44;25.5;38.6
78461;SHT31;67755;51.986;5.696;2023-06-01T14:09:17;25.4;38.2
78461;SHT31;67755;51.986;5.696;2023-06-01T14:11:47;25.4;38.5
78461;SHT31;67755;51.986;5.696;2023-06-01T14:14:17;25.3;38.0
78461;SHT31;67755;51.986;5.696;2023-06-01T14:16:46;25.3;37.7
78461;SHT31;67755;51.986;5.696;2023-06-01T14:19:16;25.3;37.7
78461;SHT31;67755;51.986;5.696;2023-06-01T14:21:45;25.3;38.0
78461;SHT31;67755;51.986;5.696;2023-06-01T14:24:15;25.3;38.2
78461;SHT31;67755;51.986;5.696;2023-06-01T14:26:44;25.3;38.0
78461;SHT31;67755;51.986;5.696;2023-06-01T14:29:14;25.2;38.7
78461;SHT31;67755;51.986;5.696;2023-06-01T14:31:45;25.2;38.2
78461;SHT31;67755;51.986;5.696;2023-06-01T14:34:17;25.2;38.4
78461;SHT31;67755;51.986;5.696;2023-06-01T14:36:47;25.1;38.1
78461;SHT31;67755;51.986;5.696;2023-06-01T14:39:18;25.1;39.0
78461;SHT31;67755;51.986;5.696;2023-06-01T14:41:48;25.1;38.6
78461;SHT31;67755;51.986;5.696;2023-06-01T14:44:17;25.1;38.1
78461;SHT31;67755;51.986;5.696;2023-06-01T14:46:47;25.0;38.5
78461;SHT31;67755;51.986;5.696;2023-06-01T14:49:17;25.0;38.3
78461;SHT31;67755;51.986;5.696;2023-06-01T14:51:47;24.9;37.9
78461;SHT31;67755;51.986;5.696;2023-06-01T14:54:16;24.9;38.2
78461;SHT31;67755;51.986;5.696;2023-06-01T14:56:46;24.8;38.3
78461;SHT31;67755;51.986;5.696;2023-06-01T14:59:18;24.7;38.1
78461;SHT31;67755;51.986;5.696;2023-06-01T15:01:47;24.7;38.1
78461;SHT31;67755;51.986;5.696;2023-06-01T15:04:19;24.6;38.4
78461;SHT31;67755;51.986;5.696;2023-06-01T15:06:50;24.5;38.7
78461;SHT31;67755;51.986;5.696;2023-06-01T15:09:20;24.4;38.8
78461;SHT31;67755;51.986;5.696;2023-06-01T15:11:51;24.3;38.3
78461;SHT31;67755;51.986;5.696;2023-06-01T15:14:21;24.2;39.1
78461;SHT31;67755;51.986;5.696;2023-06-01T15:16:50;24.1;39.0
78461;SHT31;67755;51.986;5.696;2023-06-01T15:19:20;24.1;39.9
78461;SHT31;67755;51.986;5.696;2023-06-01T15:21:50;24.0;40.3
78461;SHT31;67755;51.986;5.696;2023-06-01T15:24:19;23.9;39.6
78461;SHT31;67755;51.986;5.696;2023-06-01T15:26:49;23.8;40.1
78461;SHT31;67755;51.986;5.696;2023-06-01T15:29:18;23.8;39.7
78461;SHT31;67755;51.986;5.696;2023-06-01T15:31:48;23.7;39.5
78461;SHT31;67755;51.986;5.696;2023-06-01T15:34:17;23.6;39.5
78461;SHT31;67755;51.986;5.696;2023-06-01T15:36:47;23.6;39.9
78461;SHT31;67755;51.986;5.696;2023-06-01T15:39:16;23.5;39.8
78461;SHT31;67755;51.986;5.696;2023-06-01T15:41:46;23.5;40.3
78461;SHT31;67755;51.986;5.696;2023-06-01T15:44:15;23.4;40.7
78461;SHT31;67755;51.986;5.696;2023-06-01T15:46:45;23.4;40.6
78461;SHT31;67755;51.986;5.696;2023-06-01T15:49:15;23.3;41.0
78461;SHT31;67755;51.986;5.696;2023-06-01T15:51:44;23.3;40.8
78461;SHT31;67755;51.986;5.696;2023-06-01T15:54:14;23.2;41.6
78461;SHT31;67755;51.986;5.696;2023-06-01T15:56:43;23.2;41.4
78461;SHT31;67755;51.986;5.696;2023-06-01T15:59:13;23.2;41.0
78461;SHT31;67755;51.986;5.696;2023-06-01T16:01:44;23.1;40.7
78461;SHT31;67755;51.986;5.696;2023-06-01T16:04:13;23.1;40.6
78461;SHT31;67755;51.986;5.696;2023-06-01T16:06:43;23.1;40.7
78461;SHT31;67755;51.986;5.696;2023-06-01T16:09:13;23.0;40.6
78461;SHT31;67755;51.986;5.696;2023-06-01T16:11:42;23.0;41.2
78461;SHT31;67755;51.986;5.696;2023-06-01T16:14:12;23.0;40.7
78461;SHT31;67755;51.986;5.696;2023-06-01T16:16:42;22.9;41.9
78461;SHT31;67755;51.986;5.696;2023-06-01T16:19:11;22.9;41.7
78461;SHT31;67755;51.986;5.696;2023-06-01T16:21:41;22.9;42.1
78461;SHT31;67755;51.986;5.696;2023-06-01T16:24:11;22.8;41.4
78461;SHT31;67755;51.986;5.696;2023-06-01T16:26:41;22.8;41.2
78461;SHT31;67755;51.986;5.696;2023-06-01T16:29:11;22.8;41.4
78461;SHT31;67755;51.986;5.696;2023-06-01T16:31:41;22.7;42.3